sensor_id;sensor_type;location;lat;lon;timestamp;P1;durP1;ratioP1;P2;durP2;ratioP2
44862;SDS011;30597;49.628;10.850;2023-04-29T00:00:50;4.63;;;1.77;;
44862;SDS011;30597;49.628;10.850;2023-04-29T00:03:16;2.40;;;1.93;;
44862;SDS011;30597;49.628;10.850;2023-04-29T00:05:42;2.30;;;2.00;;
44862;SDS011;30597;49.628;10.850;2023-04-29T00:08:08;2.40;;;2.00;;
44862;SDS011;30597;49.628;10.850;2023-04-29T00:10:34;2.23;;;1.90;;
44862;SDS011;30597;49.628;10.850;2023-04-29T00:13:00;4.70;;;2.37;;
44862;SDS011;30597;49.628;10.850;2023-04-29T00:15:26;3.00;;;2.37;;
44862;SDS011;30597;49.628;10.850;2023-04-29T00:17:52;3.33;;;2.30;;
44862;SDS011;30597;49.628;10.850;2023-04-29T00:20:17;3.30;;;2.00;;
44862;SDS011;30597;49.628;10.850;2023-04-29T00:22:43;3.83;;;2.10;;
44862;SDS011;30597;49.628;10.850;2023-04-29T00:25:09;3.40;;;1.90;;
44862;SDS011;30597;49.628;10.850;2023-04-29T00:27:34;6.87;;;2.57;;
44862;SDS011;30597;49.628;10.850;2023-04-29T00:30:00;2.90;;;2.00;;
44862;SDS011;30597;49.628;10.850;2023-04-29T00:32:26;3.93;;;2.40;;
44862;SDS011;30597;49.628;10.850;2023-04-29T00:34:51;4.00;;;2.10;;
44862;SDS011;30597;49.628;10.850;2023-04-29T00:37:17;2.00;;;1.50;;
44862;SDS011;30597;49.628;10.850;2023-04-29T00:39:42;2.00;;;1.80;;
44862;SDS011;30597;49.628;10.850;2023-04-29T00:42:08;2.80;;;2.40;;
44862;SDS011;30597;49.628;10.850;2023-04-29T00:44:34;2.93;;;2.00;;
44862;SDS011;30597;49.628;10.850;2023-04-29T00:47:00;2.93;;;2.07;;
44862;SDS011;30597;49.628;10.850;2023-04-29T00:49:25;2.00;;;1.70;;
44862;SDS011;30597;49.628;10.850;2023-04-29T00:51:52;2.17;;;1.70;;
44862;SDS011;30597;49.628;10.850;2023-04-29T00:54:18;2.03;;;1.87;;
44862;SDS011;30597;49.628;10.850;2023-04-29T00:56:44;2.00;;;1.90;;
44862;SDS011;30597;49.628;10.850;2023-04-29T00:59:11;2.70;;;1.87;;
44862;SDS011;30597;49.628;10.850;2023-04-29T01:01:39;2.60;;;1.93;;
44862;SDS011;30597;49.628;10.850;2023-04-29T01:04:05;2.20;;;2.00;;
44862;SDS011;30597;49.628;10.850;2023-04-29T01:06:38;2.20;;;2.00;;
44862;SDS011;30597;49.628;10.850;2023-04-29T01:15:21;2.30;;;1.97;;
44862;SDS011;30597;49.628;10.850;2023-04-29T01:17:49;2.60;;;1.90;;
44862;SDS011;30597;49.628;10.850;2023-04-29T01:20:29;2.20;;;1.50;;
44862;SDS011;30597;49.628;10.850;2023-04-29T01:22:55;2.33;;;2.13;;
44862;SDS011;30597;49.628;10.850;2023-04-29T01:25:21;2.20;;;1.93;;
44862;SDS011;30597;49.628;10.850;2023-04-29T01:28:01;1.90;;;1.67;;
44862;SDS011;30597;49.628;10.850;2023-04-29T01:30:41;2.40;;;1.97;;
44862;SDS011;30597;49.628;10.850;2023-04-29T01:41:34;2.43;;;2.20;;
44862;SDS011;30597;49.628;10.850;2023-04-29T01:44:11;2.27;;;2.07;;
44862;SDS011;30597;49.628;10.850;2023-04-29T01:46:40;3.90;;;2.60;;
44862;SDS011;30597;49.628;10.850;2023-04-29T01:49:08;2.43;;;2.10;;
44862;SDS011;30597;49.628;10.850;2023-04-29T01:51:33;3.10;;;2.03;;
44862;SDS011;30597;49.628;10.850;2023-04-29T01:53:59;1.93;;;1.70;;
44862;SDS011;30597;49.628;10.850;2023-04-29T01:56:24;2.17;;;1.97;;
44862;SDS011;30597;49.628;10.850;2023-04-29T01:58:50;4.37;;;2.10;;
44862;SDS011;30597;49.628;10.850;2023-04-29T02:01:15;3.10;;;2.00;;
44862;SDS011;30597;49.628;10.850;2023-04-29T02:03:41;1.70;;;1.60;;
44862;SDS011;30597;49.628;10.850;2023-04-29T02:06:06;2.20;;;2.00;;
44862;SDS011;30597;49.628;10.850;2023-04-29T02:08:32;2.30;;;2.10;;
44862;SDS011;30597;49.628;10.850;2023-04-29T02:10:58;1.93;;;1.80;;
44862;SDS011;30597;49.628;10.850;2023-04-29T02:13:24;1.87;;;1.77;;
44862;SDS011;30597;49.628;10.850;2023-04-29T02:15:50;2.10;;;1.90;;
44862;SDS011;30597;49.628;10.850;2023-04-29T02:18:16;2.00;;;1.90;;
44862;SDS011;30597;49.628;10.850;2023-04-29T02:20:41;2.50;;;1.87;;
44862;SDS011;30597;49.628;10.850;2023-04-29T02:23:07;1.93;;;1.80;;
44862;SDS011;30597;49.628;10.850;2023-04-29T02:25:33;2.87;;;2.03;;
44862;SDS011;30597;49.628;10.850;2023-04-29T02:27:58;2.10;;;1.80;;
44862;SDS011;30597;49.628;10.850;2023-04-29T02:30:24;2.03;;;1.90;;
44862;SDS011;30597;49.628;10.850;2023-04-29T02:32:49;2.93;;;2.50;;
44862;SDS011;30597;49.628;10.850;2023-04-29T02:35:15;2.10;;;1.87;;
44862;SDS011;30597;49.628;10.850;2023-04-29T02:37:41;1.90;;;1.70;;
44862;SDS011;30597;49.628;10.850;2023-04-29T02:40:06;2.20;;;2.00;;
44862;SDS011;30597;49.628;10.850;2023-04-29T02:42:32;2.20;;;2.00;;
44862;SDS011;30597;49.628;10.850;2023-04-29T02:44:58;3.13;;;1.93;;
44862;SDS011;30597;49.628;10.850;2023-04-29T02:47:23;3.37;;;2.70;;
44862;SDS011;30597;49.628;10.850;2023-04-29T02:49:49;1.53;;;1.43;;
44862;SDS011;30597;49.628;10.850;2023-04-29T02:52:14;2.00;;;1.80;;
44862;SDS011;30597;49.628;10.850;2023-04-29T02:54:41;2.47;;;1.77;;
44862;SDS011;30597;49.628;10.850;2023-04-29T02:57:07;2.80;;;1.90;;
44862;SDS011;30597;49.628;10.850;2023-04-29T02:59:32;2.27;;;1.47;;
44862;SDS011;30597;49.628;10.850;2023-04-29T03:01:58;1.50;;;1.40;;
44862;SDS011;30597;49.628;10.850;2023-04-29T03:04:25;2.23;;;2.03;;
44862;SDS011;30597;49.628;10.850;2023-04-29T03:06:53;2.43;;;1.70;;
44862;SDS011;30597;49.628;10.850;2023-04-29T03:09:20;3.80;;;1.83;;
44862;SDS011;30597;49.628;10.850;2023-04-29T03:11:46;2.00;;;1.80;;
44862;SDS011;30597;49.628;10.850;2023-04-29T03:14:11;2.50;;;1.80;;
44862;SDS011;30597;49.628;10.850;2023-04-29T03:16:37;2.10;;;1.70;;
44862;SDS011;30597;49.628;10.850;2023-04-29T03:19:02;1.90;;;1.63;;
44862;SDS011;30597;49.628;10.850;2023-04-29T03:21:28;1.60;;;1.47;;
44862;SDS011;30597;49.628;10.850;2023-04-29T03:23:53;1.83;;;1.70;;
44862;SDS011;30597;49.628;10.850;2023-04-29T03:26:20;1.70;;;1.30;;
44862;SDS011;30597;49.628;10.850;2023-04-29T03:28:48;1.83;;;1.70;;
44862;SDS011;30597;49.628;10.850;2023-04-29T03:31:13;1.73;;;1.63;;
44862;SDS011;30597;49.628;10.850;2023-04-29T03:33:40;1.63;;;1.50;;
44862;SDS011;30597;49.628;10.850;2023-04-29T03:36:06;2.10;;;1.90;;
44862;SDS011;30597;49.628;10.850;2023-04-29T03:38:32;1.97;;;1.77;;
44862;SDS011;30597;49.628;10.850;2023-04-29T03:40:58;2.63;;;1.60;;
44862;SDS011;30597;49.628;10.850;2023-04-29T03:43:23;2.10;;;1.70;;
44862;SDS011;30597;49.628;10.850;2023-04-29T03:45:49;1.70;;;1.60;;
44862;SDS011;30597;49.628;10.850;2023-04-29T03:48:15;2.10;;;1.90;;
44862;SDS011;30597;49.628;10.850;2023-04-29T03:50:41;2.80;;;2.07;;
44862;SDS011;30597;49.628;10.850;2023-04-29T03:53:06;1.57;;;1.47;;
44862;SDS011;30597;49.628;10.850;2023-04-29T03:55:32;1.63;;;1.47;;
44862;SDS011;30597;49.628;10.850;2023-04-29T03:57:58;2.00;;;1.80;;
44862;SDS011;30597;49.628;10.850;2023-04-29T04:00:23;1.80;;;1.60;;
44862;SDS011;30597;49.628;10.850;2023-04-29T04:02:50;1.57;;;1.47;;
44862;SDS011;30597;49.628;10.850;2023-04-29T04:05:16;1.70;;;1.60;;
44862;SDS011;30597;49.628;10.850;2023-04-29T04:07:44;1.97;;;1.87;;
44862;SDS011;30597;49.628;10.850;2023-04-29T04:10:10;2.07;;;1.93;;
44862;SDS011;30597;49.628;10.850;2023-04-29T04:12:36;1.67;;;1.50;;
44862;SDS011;30597;49.628;10.850;2023-04-29T04:15:01;2.57;;;1.70;;
44862;SDS011;30597;49.628;10.850;2023-04-29T04:17:28;1.60;;;1.50;;
44862;SDS011;30597;49.628;10.850;2023-04-29T04:19:54;2.20;;;2.00;;
44862;SDS011;30597;49.628;10.850;2023-04-29T04:22:19;1.70;;;1.60;;
44862;SDS011;30597;49.628;10.850;2023-04-29T04:24:45;1.73;;;1.63;;
44862;SDS011;30597;49.628;10.850;2023-04-29T04:27:11;1.50;;;1.40;;
44862;SDS011;30597;49.628;10.850;2023-04-29T04:29:37;1.50;;;1.40;;
44862;SDS011;30597;49.628;10.850;2023-04-29T04:32:02;2.80;;;1.73;;
44862;SDS011;30597;49.628;10.850;2023-04-29T04:34:28;2.23;;;1.70;;
44862;SDS011;30597;49.628;10.850;2023-04-29T04:36:54;1.63;;;1.40;;
44862;SDS011;30597;49.628;10.850;2023-04-29T04:39:19;1.93;;;1.77;;
44862;SDS011;30597;49.628;10.850;2023-04-29T04:41:45;1.80;;;1.53;;
44862;SDS011;30597;49.628;10.850;2023-04-29T04:44:10;6.97;;;1.70;;
44862;SDS011;30597;49.628;10.850;2023-04-29T04:46:37;1.77;;;1.67;;
44862;SDS011;30597;49.628;10.850;2023-04-29T04:49:02;1.97;;;1.70;;
44862;SDS011;30597;49.628;10.850;2023-04-29T04:51:28;2.70;;;1.63;;
44862;SDS011;30597;49.628;10.850;2023-04-29T04:53:53;1.80;;;1.70;;
44862;SDS011;30597;49.628;10.850;2023-04-29T04:56:19;1.67;;;1.57;;
44862;SDS011;30597;49.628;10.850;2023-04-29T04:58:44;1.50;;;1.10;;
44862;SDS011;30597;49.628;10.850;2023-04-29T05:01:10;1.87;;;1.57;;
44862;SDS011;30597;49.628;10.850;2023-04-29T05:03:36;1.77;;;1.67;;
44862;SDS011;30597;49.628;10.850;2023-04-29T05:06:01;1.83;;;1.73;;
44862;SDS011;30597;49.628;10.850;2023-04-29T05:08:27;1.73;;;1.63;;
44862;SDS011;30597;49.628;10.850;2023-04-29T05:10:52;1.70;;;1.60;;
44862;SDS011;30597;49.628;10.850;2023-04-29T05:13:18;1.43;;;1.33;;
44862;SDS011;30597;49.628;10.850;2023-04-29T05:15:44;1.10;;;1.00;;
44862;SDS011;30597;49.628;10.850;2023-04-29T05:18:10;1.70;;;1.60;;
44862;SDS011;30597;49.628;10.850;2023-04-29T05:20:36;1.50;;;1.40;;
44862;SDS011;30597;49.628;10.850;2023-04-29T05:23:02;1.57;;;1.47;;
44862;SDS011;30597;49.628;10.850;2023-04-29T05:25:28;1.80;;;1.70;;
44862;SDS011;30597;49.628;10.850;2023-04-29T05:27:53;1.73;;;1.40;;
44862;SDS011;30597;49.628;10.850;2023-04-29T05:30:19;1.30;;;1.20;;
44862;SDS011;30597;49.628;10.850;2023-04-29T05:32:45;1.53;;;1.30;;
44862;SDS011;30597;49.628;10.850;2023-04-29T05:35:10;1.37;;;1.23;;
44862;SDS011;30597;49.628;10.850;2023-04-29T05:37:36;1.40;;;1.30;;
44862;SDS011;30597;49.628;10.850;2023-04-29T05:40:02;1.57;;;1.47;;
44862;SDS011;30597;49.628;10.850;2023-04-29T05:42:28;1.80;;;1.70;;
44862;SDS011;30597;49.628;10.850;2023-04-29T05:44:54;1.77;;;1.67;;
44862;SDS011;30597;49.628;10.850;2023-04-29T05:47:20;2.03;;;1.77;;
44862;SDS011;30597;49.628;10.850;2023-04-29T05:49:46;2.43;;;1.30;;
44862;SDS011;30597;49.628;10.850;2023-04-29T05:52:12;1.60;;;1.50;;
44862;SDS011;30597;49.628;10.850;2023-04-29T05:54:37;1.43;;;1.33;;
44862;SDS011;30597;49.628;10.850;2023-04-29T05:57:03;2.10;;;1.57;;
44862;SDS011;30597;49.628;10.850;2023-04-29T05:59:29;1.60;;;1.43;;
44862;SDS011;30597;49.628;10.850;2023-04-29T06:01:56;2.60;;;1.63;;
44862;SDS011;30597;49.628;10.850;2023-04-29T06:04:22;1.77;;;1.40;;
44862;SDS011;30597;49.628;10.850;2023-04-29T06:06:49;3.13;;;1.30;;
44862;SDS011;30597;49.628;10.850;2023-04-29T06:09:18;1.97;;;1.70;;
44862;SDS011;30597;49.628;10.850;2023-04-29T06:11:44;1.40;;;1.30;;
44862;SDS011;30597;49.628;10.850;2023-04-29T06:14:10;1.30;;;1.20;;
44862;SDS011;30597;49.628;10.850;2023-04-29T06:16:36;3.13;;;1.33;;
44862;SDS011;30597;49.628;10.850;2023-04-29T06:19:02;1.93;;;1.60;;
44862;SDS011;30597;49.628;10.850;2023-04-29T06:21:27;1.90;;;1.70;;
44862;SDS011;30597;49.628;10.850;2023-04-29T06:23:53;1.90;;;1.80;;
44862;SDS011;30597;49.628;10.850;2023-04-29T06:26:19;2.07;;;1.97;;
44862;SDS011;30597;49.628;10.850;2023-04-29T06:28:45;1.43;;;1.33;;
44862;SDS011;30597;49.628;10.850;2023-04-29T06:31:11;1.70;;;1.60;;
44862;SDS011;30597;49.628;10.850;2023-04-29T06:33:37;1.90;;;1.63;;
44862;SDS011;30597;49.628;10.850;2023-04-29T06:36:04;2.07;;;1.90;;
44862;SDS011;30597;49.628;10.850;2023-04-29T06:38:29;2.67;;;1.60;;
44862;SDS011;30597;49.628;10.850;2023-04-29T06:40:55;1.67;;;1.57;;
44862;SDS011;30597;49.628;10.850;2023-04-29T06:43:31;2.10;;;1.90;;
44862;SDS011;30597;49.628;10.850;2023-04-29T06:45:57;1.80;;;1.57;;
44862;SDS011;30597;49.628;10.850;2023-04-29T06:48:23;1.70;;;1.60;;
44862;SDS011;30597;49.628;10.850;2023-04-29T06:50:52;1.80;;;1.70;;
44862;SDS011;30597;49.628;10.850;2023-04-29T06:53:22;1.50;;;1.40;;
44862;SDS011;30597;49.628;10.850;2023-04-29T06:55:48;1.47;;;1.37;;
44862;SDS011;30597;49.628;10.850;2023-04-29T06:58:14;2.40;;;1.40;;
44862;SDS011;30597;49.628;10.850;2023-04-29T07:00:42;1.97;;;1.87;;
44862;SDS011;30597;49.628;10.850;2023-04-29T07:03:10;1.87;;;1.67;;
44862;SDS011;30597;49.628;10.850;2023-04-29T07:05:36;2.03;;;1.73;;
44862;SDS011;30597;49.628;10.850;2023-04-29T07:08:06;2.23;;;2.10;;
44862;SDS011;30597;49.628;10.850;2023-04-29T07:10:32;1.70;;;1.60;;
44862;SDS011;30597;49.628;10.850;2023-04-29T07:12:57;1.93;;;1.73;;
44862;SDS011;30597;49.628;10.850;2023-04-29T07:15:26;1.87;;;1.77;;
44862;SDS011;30597;49.628;10.850;2023-04-29T07:17:52;3.63;;;1.63;;
44862;SDS011;30597;49.628;10.850;2023-04-29T07:20:18;2.13;;;1.87;;
44862;SDS011;30597;49.628;10.850;2023-04-29T07:22:44;2.80;;;2.00;;
44862;SDS011;30597;49.628;10.850;2023-04-29T07:25:09;1.50;;;1.30;;
44862;SDS011;30597;49.628;10.850;2023-04-29T07:27:35;1.77;;;1.67;;
44862;SDS011;30597;49.628;10.850;2023-04-29T07:30:01;1.90;;;1.70;;
44862;SDS011;30597;49.628;10.850;2023-04-29T07:32:27;2.33;;;1.73;;
44862;SDS011;30597;49.628;10.850;2023-04-29T07:34:55;1.83;;;1.60;;
44862;SDS011;30597;49.628;10.850;2023-04-29T07:37:21;1.50;;;1.40;;
44862;SDS011;30597;49.628;10.850;2023-04-29T07:39:47;1.60;;;1.50;;
44862;SDS011;30597;49.628;10.850;2023-04-29T07:42:12;1.60;;;1.50;;
44862;SDS011;30597;49.628;10.850;2023-04-29T07:44:38;1.67;;;1.57;;
44862;SDS011;30597;49.628;10.850;2023-04-29T07:47:03;1.50;;;1.40;;
44862;SDS011;30597;49.628;10.850;2023-04-29T07:49:29;1.73;;;1.63;;
44862;SDS011;30597;49.628;10.850;2023-04-29T07:51:55;1.93;;;1.73;;
44862;SDS011;30597;49.628;10.850;2023-04-29T07:54:21;1.87;;;1.70;;
44862;SDS011;30597;49.628;10.850;2023-04-29T07:56:47;2.20;;;1.70;;
44862;SDS011;30597;49.628;10.850;2023-04-29T07:59:13;1.53;;;1.33;;
44862;SDS011;30597;49.628;10.850;2023-04-29T08:01:41;2.00;;;1.50;;
44862;SDS011;30597;49.628;10.850;2023-04-29T08:04:07;1.80;;;1.70;;
44862;SDS011;30597;49.628;10.850;2023-04-29T08:06:33;1.53;;;1.30;;
44862;SDS011;30597;49.628;10.850;2023-04-29T08:09:00;1.70;;;1.60;;
44862;SDS011;30597;49.628;10.850;2023-04-29T08:11:25;1.60;;;1.50;;
44862;SDS011;30597;49.628;10.850;2023-04-29T08:13:51;1.90;;;1.80;;
44862;SDS011;30597;49.628;10.850;2023-04-29T08:16:17;1.63;;;1.43;;
44862;SDS011;30597;49.628;10.850;2023-04-29T08:18:43;1.77;;;1.67;;
44862;SDS011;30597;49.628;10.850;2023-04-29T08:21:08;1.60;;;1.50;;
44862;SDS011;30597;49.628;10.850;2023-04-29T08:23:36;1.93;;;1.70;;
44862;SDS011;30597;49.628;10.850;2023-04-29T08:26:02;1.90;;;1.73;;
44862;SDS011;30597;49.628;10.850;2023-04-29T08:28:28;2.00;;;1.70;;
44862;SDS011;30597;49.628;10.850;2023-04-29T08:30:53;3.10;;;2.90;;
44862;SDS011;30597;49.628;10.850;2023-04-29T08:33:19;4.30;;;3.10;;
44862;SDS011;30597;49.628;10.850;2023-04-29T08:35:45;7.47;;;2.80;;
44862;SDS011;30597;49.628;10.850;2023-04-29T08:38:10;6.17;;;2.97;;
44862;SDS011;30597;49.628;10.850;2023-04-29T08:40:40;7.07;;;3.00;;
44862;SDS011;30597;49.628;10.850;2023-04-29T08:43:07;3.20;;;2.90;;
44862;SDS011;30597;49.628;10.850;2023-04-29T08:45:34;6.80;;;2.83;;
44862;SDS011;30597;49.628;10.850;2023-04-29T08:48:03;6.70;;;2.90;;
44862;SDS011;30597;49.628;10.850;2023-04-29T08:50:31;3.70;;;2.67;;
44862;SDS011;30597;49.628;10.850;2023-04-29T08:53:04;3.50;;;2.40;;
44862;SDS011;30597;49.628;10.850;2023-04-29T08:55:33;5.60;;;2.30;;
44862;SDS011;30597;49.628;10.850;2023-04-29T08:58:00;7.23;;;2.40;;
44862;SDS011;30597;49.628;10.850;2023-04-29T09:00:26;2.90;;;2.00;;
44862;SDS011;30597;49.628;10.850;2023-04-29T09:02:55;2.60;;;2.00;;
44862;SDS011;30597;49.628;10.850;2023-04-29T09:05:21;2.47;;;1.90;;
44862;SDS011;30597;49.628;10.850;2023-04-29T09:07:48;3.80;;;2.23;;
44862;SDS011;30597;49.628;10.850;2023-04-29T09:10:15;3.87;;;2.53;;
44862;SDS011;30597;49.628;10.850;2023-04-29T09:12:42;3.90;;;2.20;;
44862;SDS011;30597;49.628;10.850;2023-04-29T09:15:08;3.73;;;1.90;;
44862;SDS011;30597;49.628;10.850;2023-04-29T09:17:37;3.23;;;2.20;;
44862;SDS011;30597;49.628;10.850;2023-04-29T09:22:48;3.83;;;2.00;;
44862;SDS011;30597;49.628;10.850;2023-04-29T09:25:25;2.43;;;2.00;;
44862;SDS011;30597;49.628;10.850;2023-04-29T09:27:51;2.20;;;2.00;;
44862;SDS011;30597;49.628;10.850;2023-04-29T09:30:17;3.23;;;1.73;;
44862;SDS011;30597;49.628;10.850;2023-04-29T09:32:43;1.83;;;1.73;;
44862;SDS011;30597;49.628;10.850;2023-04-29T09:35:25;2.20;;;2.00;;
44862;SDS011;30597;49.628;10.850;2023-04-29T09:37:52;2.13;;;1.93;;
44862;SDS011;30597;49.628;10.850;2023-04-29T09:40:32;2.40;;;2.20;;
44862;SDS011;30597;49.628;10.850;2023-04-29T09:42:58;1.73;;;1.63;;
44862;SDS011;30597;49.628;10.850;2023-04-29T09:45:34;1.80;;;1.70;;
44862;SDS011;30597;49.628;10.850;2023-04-29T09:48:04;3.20;;;1.70;;
44862;SDS011;30597;49.628;10.850;2023-04-29T09:50:31;2.10;;;1.80;;
44862;SDS011;30597;49.628;10.850;2023-04-29T09:52:58;1.73;;;1.63;;
44862;SDS011;30597;49.628;10.850;2023-04-29T09:55:24;2.63;;;1.70;;
44862;SDS011;30597;49.628;10.850;2023-04-29T09:57:51;5.97;;;2.37;;
44862;SDS011;30597;49.628;10.850;2023-04-29T10:00:20;2.33;;;2.13;;
44862;SDS011;30597;49.628;10.850;2023-04-29T10:02:46;2.20;;;1.90;;
44862;SDS011;30597;49.628;10.850;2023-04-29T10:05:13;2.53;;;2.13;;
44862;SDS011;30597;49.628;10.850;2023-04-29T10:07:39;1.63;;;1.53;;
44862;SDS011;30597;49.628;10.850;2023-04-29T10:10:06;3.00;;;1.67;;
44862;SDS011;30597;49.628;10.850;2023-04-29T10:12:36;1.90;;;1.53;;
44862;SDS011;30597;49.628;10.850;2023-04-29T10:15:20;2.33;;;1.70;;
44862;SDS011;30597;49.628;10.850;2023-04-29T10:18:13;1.93;;;1.73;;
44862;SDS011;30597;49.628;10.850;2023-04-29T10:20:49;1.77;;;1.67;;
44862;SDS011;30597;49.628;10.850;2023-04-29T10:23:16;3.00;;;1.83;;
44862;SDS011;30597;49.628;10.850;2023-04-29T10:25:43;1.63;;;1.53;;
44862;SDS011;30597;49.628;10.850;2023-04-29T10:28:13;2.60;;;2.40;;
44862;SDS011;30597;49.628;10.850;2023-04-29T10:30:43;2.83;;;2.60;;
44862;SDS011;30597;49.628;10.850;2023-04-29T10:33:10;4.67;;;4.23;;
44862;SDS011;30597;49.628;10.850;2023-04-29T10:35:36;4.13;;;3.83;;
44862;SDS011;30597;49.628;10.850;2023-04-29T10:38:04;5.80;;;4.47;;
44862;SDS011;30597;49.628;10.850;2023-04-29T10:40:48;3.60;;;3.30;;
44862;SDS011;30597;49.628;10.850;2023-04-29T10:43:21;4.90;;;3.53;;
44862;SDS011;30597;49.628;10.850;2023-04-29T10:45:48;3.10;;;2.90;;
44862;SDS011;30597;49.628;10.850;2023-04-29T10:48:13;3.70;;;3.00;;
44862;SDS011;30597;49.628;10.850;2023-04-29T10:53:11;2.87;;;2.57;;
44862;SDS011;30597;49.628;10.850;2023-04-29T10:55:41;2.80;;;2.50;;
44862;SDS011;30597;49.628;10.850;2023-04-29T11:00:59;2.70;;;2.50;;
44862;SDS011;30597;49.628;10.850;2023-04-29T11:06:10;2.80;;;2.50;;
44862;SDS011;30597;49.628;10.850;2023-04-29T11:08:36;2.80;;;2.60;;
44862;SDS011;30597;49.628;10.850;2023-04-29T11:11:03;2.60;;;2.40;;
44862;SDS011;30597;49.628;10.850;2023-04-29T11:13:30;2.50;;;2.30;;
44862;SDS011;30597;49.628;10.850;2023-04-29T11:16:05;2.30;;;2.10;;
44862;SDS011;30597;49.628;10.850;2023-04-29T11:18:31;2.30;;;2.10;;
44862;SDS011;30597;49.628;10.850;2023-04-29T11:23:39;2.73;;;2.50;;
44862;SDS011;30597;49.628;10.850;2023-04-29T11:26:05;2.40;;;2.20;;
44862;SDS011;30597;49.628;10.850;2023-04-29T11:28:31;2.90;;;2.30;;
44862;SDS011;30597;49.628;10.850;2023-04-29T11:30:58;2.13;;;1.93;;
44862;SDS011;30597;49.628;10.850;2023-04-29T11:33:24;2.63;;;2.30;;
44862;SDS011;30597;49.628;10.850;2023-04-29T11:35:51;2.40;;;2.20;;
44862;SDS011;30597;49.628;10.850;2023-04-29T11:38:22;1.93;;;1.77;;
44862;SDS011;30597;49.628;10.850;2023-04-29T11:40:49;2.50;;;2.30;;
44862;SDS011;30597;49.628;10.850;2023-04-29T11:43:18;2.70;;;2.17;;
44862;SDS011;30597;49.628;10.850;2023-04-29T11:45:44;2.53;;;1.93;;
44862;SDS011;30597;49.628;10.850;2023-04-29T11:48:23;2.60;;;2.23;;
44862;SDS011;30597;49.628;10.850;2023-04-29T11:50:51;2.30;;;2.00;;
44862;SDS011;30597;49.628;10.850;2023-04-29T11:53:19;2.07;;;1.97;;
44862;SDS011;30597;49.628;10.850;2023-04-29T11:55:46;3.70;;;2.17;;
44862;SDS011;30597;49.628;10.850;2023-04-29T11:58:13;2.20;;;1.97;;
44862;SDS011;30597;49.628;10.850;2023-04-29T12:00:40;1.93;;;1.73;;
44862;SDS011;30597;49.628;10.850;2023-04-29T12:03:06;2.00;;;1.90;;
44862;SDS011;30597;49.628;10.850;2023-04-29T12:06:00;2.47;;;2.17;;
44862;SDS011;30597;49.628;10.850;2023-04-29T12:08:27;2.17;;;1.97;;
44862;SDS011;30597;49.628;10.850;2023-04-29T12:10:54;2.60;;;2.10;;
44862;SDS011;30597;49.628;10.850;2023-04-29T12:13:24;2.13;;;1.90;;
44862;SDS011;30597;49.628;10.850;2023-04-29T12:15:52;1.87;;;1.77;;
44862;SDS011;30597;49.628;10.850;2023-04-29T12:18:18;2.10;;;1.93;;
44862;SDS011;30597;49.628;10.850;2023-04-29T12:20:46;2.63;;;2.43;;
44862;SDS011;30597;49.628;10.850;2023-04-29T12:23:16;2.07;;;1.70;;
44862;SDS011;30597;49.628;10.850;2023-04-29T12:25:47;2.20;;;2.00;;
44862;SDS011;30597;49.628;10.850;2023-04-29T12:28:15;2.10;;;2.00;;
44862;SDS011;30597;49.628;10.850;2023-04-29T12:30:42;2.17;;;1.97;;
44862;SDS011;30597;49.628;10.850;2023-04-29T12:33:09;1.90;;;1.60;;
44862;SDS011;30597;49.628;10.850;2023-04-29T12:35:35;2.03;;;1.83;;
44862;SDS011;30597;49.628;10.850;2023-04-29T12:38:01;1.73;;;1.63;;
44862;SDS011;30597;49.628;10.850;2023-04-29T12:40:27;2.57;;;1.83;;
44862;SDS011;30597;49.628;10.850;2023-04-29T12:42:53;1.53;;;1.43;;
44862;SDS011;30597;49.628;10.850;2023-04-29T12:45:25;1.50;;;1.40;;
44862;SDS011;30597;49.628;10.850;2023-04-29T12:47:58;1.50;;;1.40;;
44862;SDS011;30597;49.628;10.850;2023-04-29T12:50:31;2.10;;;1.90;;
44862;SDS011;30597;49.628;10.850;2023-04-29T12:52:58;2.00;;;1.80;;
44862;SDS011;30597;49.628;10.850;2023-04-29T12:55:24;1.90;;;1.80;;
44862;SDS011;30597;49.628;10.850;2023-04-29T12:57:50;1.87;;;1.77;;
44862;SDS011;30597;49.628;10.850;2023-04-29T13:00:15;1.63;;;1.53;;
44862;SDS011;30597;49.628;10.850;2023-04-29T13:02:44;1.70;;;1.60;;
44862;SDS011;30597;49.628;10.850;2023-04-29T13:05:10;1.50;;;1.40;;
44862;SDS011;30597;49.628;10.850;2023-04-29T13:07:36;1.70;;;1.60;;
44862;SDS011;30597;49.628;10.850;2023-04-29T13:10:02;1.40;;;1.30;;
44862;SDS011;30597;49.628;10.850;2023-04-29T13:12:30;1.60;;;1.50;;
44862;SDS011;30597;49.628;10.850;2023-04-29T13:14:56;1.83;;;1.50;;
44862;SDS011;30597;49.628;10.850;2023-04-29T13:17:21;1.67;;;1.57;;
44862;SDS011;30597;49.628;10.850;2023-04-29T13:19:47;1.70;;;1.60;;
44862;SDS011;30597;49.628;10.850;2023-04-29T13:22:13;1.60;;;1.50;;
44862;SDS011;30597;49.628;10.850;2023-04-29T13:24:38;2.10;;;1.50;;
44862;SDS011;30597;49.628;10.850;2023-04-29T13:27:04;2.57;;;1.87;;
44862;SDS011;30597;49.628;10.850;2023-04-29T13:29:30;1.40;;;1.30;;
44862;SDS011;30597;49.628;10.850;2023-04-29T13:31:55;4.00;;;1.70;;
44862;SDS011;30597;49.628;10.850;2023-04-29T13:34:21;1.50;;;1.40;;
44862;SDS011;30597;49.628;10.850;2023-04-29T13:36:46;1.80;;;1.40;;
44862;SDS011;30597;49.628;10.850;2023-04-29T13:39:12;1.43;;;1.33;;
44862;SDS011;30597;49.628;10.850;2023-04-29T13:41:38;1.60;;;1.50;;
44862;SDS011;30597;49.628;10.850;2023-04-29T13:44:03;1.77;;;1.60;;
44862;SDS011;30597;49.628;10.850;2023-04-29T13:46:29;1.67;;;1.40;;
44862;SDS011;30597;49.628;10.850;2023-04-29T13:48:56;1.47;;;1.37;;
44862;SDS011;30597;49.628;10.850;2023-04-29T13:51:22;1.30;;;1.20;;
44862;SDS011;30597;49.628;10.850;2023-04-29T13:53:47;1.20;;;1.10;;
44862;SDS011;30597;49.628;10.850;2023-04-29T13:56:13;2.03;;;1.63;;
44862;SDS011;30597;49.628;10.850;2023-04-29T13:58:39;2.17;;;1.57;;
44862;SDS011;30597;49.628;10.850;2023-04-29T14:01:05;1.90;;;1.60;;
44862;SDS011;30597;49.628;10.850;2023-04-29T14:03:31;1.83;;;1.73;;
44862;SDS011;30597;49.628;10.850;2023-04-29T14:05:57;1.80;;;1.70;;
44862;SDS011;30597;49.628;10.850;2023-04-29T14:08:22;1.80;;;1.50;;
44862;SDS011;30597;49.628;10.850;2023-04-29T14:10:48;2.27;;;1.70;;
44862;SDS011;30597;49.628;10.850;2023-04-29T14:13:14;1.47;;;1.20;;
44862;SDS011;30597;49.628;10.850;2023-04-29T14:15:39;1.30;;;1.20;;
44862;SDS011;30597;49.628;10.850;2023-04-29T14:18:05;1.60;;;1.50;;
44862;SDS011;30597;49.628;10.850;2023-04-29T14:20:33;1.60;;;1.50;;
44862;SDS011;30597;49.628;10.850;2023-04-29T14:22:59;2.37;;;1.67;;
44862;SDS011;30597;49.628;10.850;2023-04-29T14:25:24;1.47;;;1.20;;
44862;SDS011;30597;49.628;10.850;2023-04-29T14:27:50;1.30;;;1.20;;
44862;SDS011;30597;49.628;10.850;2023-04-29T14:30:16;1.40;;;1.30;;
44862;SDS011;30597;49.628;10.850;2023-04-29T14:32:41;1.60;;;1.50;;
44862;SDS011;30597;49.628;10.850;2023-04-29T14:35:07;1.60;;;1.50;;
44862;SDS011;30597;49.628;10.850;2023-04-29T14:37:33;1.40;;;1.30;;
44862;SDS011;30597;49.628;10.850;2023-04-29T14:39:58;1.77;;;1.40;;
44862;SDS011;30597;49.628;10.850;2023-04-29T14:42:24;1.40;;;1.30;;
44862;SDS011;30597;49.628;10.850;2023-04-29T14:44:49;1.70;;;1.60;;
44862;SDS011;30597;49.628;10.850;2023-04-29T14:47:15;1.80;;;1.37;;
44862;SDS011;30597;49.628;10.850;2023-04-29T14:49:41;1.60;;;1.50;;
44862;SDS011;30597;49.628;10.850;2023-04-29T14:52:06;1.40;;;1.30;;
44862;SDS011;30597;49.628;10.850;2023-04-29T14:54:32;1.20;;;1.10;;
44862;SDS011;30597;49.628;10.850;2023-04-29T14:56:57;1.43;;;1.33;;
44862;SDS011;30597;49.628;10.850;2023-04-29T14:59:23;1.27;;;0.97;;